Time;durP1;ratioP1;P1;durP2;ratioP2;P2;SDS_P1;SDS_P2;PMS_P1;PMS_P2;Temp;Humidity;BMP_temperature;BMP_pressure;BME280_temperature;BME280_humidity;BME280_pressure;Samples;Min_cycle;Max_cycle;Signal;HPM_P1;HPM_P2
2021/11/16 00:18:55;;;;;;;;;;;;;;;;;;;;;
2021/11/16 00:27:40;;;;;;;48.92;28.63;;;7.40;91.50;;;;;;6184169;22;20011;-89
2021/11/16 00:36:39;;;;;;;;;;;;;;;;;;;;;
2021/11/16 00:39:18;;;;;;;;;;;;;;;;;;;;;
2021/11/16 00:45:13;;;;;;;44.72;25.77;;;7.40;91.70;;;;;;6232679;23;20020;-89
2021/11/16 00:48:13;;;;;;;;;;;;;;;;;;;;;
2021/11/16 00:51:18;;;;;;;44.05;26.33;;;7.40;91.60;;;;;;6307894;22;20003;-90
2021/11/16 00:53:59;;;;;;;44.75;25.27;;;7.40;91.70;;;;;;6332564;22;19991;-90
2021/11/16 00:56:25;;;;;;;42.40;26.15;;;7.40;91.60;;;;;;6283125;22;20003;-90
2021/11/16 00:59:04;;;;;;;;;;;;;;;;;;;;;
2021/11/16 01:01:45;;;;;;;;;;;;;;;;;;;;;
2021/11/16 01:04:17;;;;;;;45.92;26.75;;;7.40;91.80;;;;;;6313229;22;20086;-89
2021/11/16 01:06:49;;;;;;;41.10;24.30;;;7.40;91.70;;;;;;6283492;22;19999;-89
2021/11/16 01:09:23;;;;;;;46.42;25.77;;;7.40;91.70;;;;;;6285240;22;19999;-89
2021/11/16 01:12:25;;;;;;;42.88;25.92;;;7.40;91.80;;;;;;6281438;22;20000;-90
2021/11/16 01:14:57;;;;;;;46.25;26.48;;;7.40;91.80;;;;;;6265281;22;20056;-89
2021/11/16 01:17:39;;;;;;;;;;;7.40;91.80;;;;;;6286232;22;20053;-89
2021/11/16 01:20:18;;;;;;;50.40;27.77;;;7.40;91.70;;;;;;6287239;22;19903;-88
2021/11/16 01:22:58;;;;;;;42.85;26.45;;;7.40;91.70;;;;;;6295553;22;20098;-89
2021/11/16 01:25:55;;;;;;;;;;;;;;;;;;;;;
2021/11/16 01:28:29;;;;;;;45.35;25.65;;;7.30;91.70;;;;;;6337125;22;19999;-88
2021/11/16 01:31:05;;;;;;;42.85;24.55;;;7.40;91.80;;;;;;6337028;22;19987;-89
2021/11/16 01:33:52;;;;;;;42.55;24.58;;;7.40;91.70;;;;;;6304661;22;20003;-88
2021/11/16 01:39:16;;;;;;;51.67;28.30;;;7.40;91.70;;;;;;6311985;22;20081;-90
2021/11/16 01:42:05;;;;;;;45.35;26.38;;;7.40;91.60;;;;;;6260607;22;20004;-90
2021/11/16 01:44:53;;;;;;;43.33;25.23;;;7.40;91.80;;;;;;6310552;22;20497;-89
2021/11/16 01:47:35;;;;;;;;;;;;;;;;;;;;;
2021/11/16 01:50:04;;;;;;;45.83;26.45;;;7.30;91.70;;;;;;6311154;22;20378;-90
2021/11/16 01:52:43;;;;;;;43.20;25.88;;;7.40;91.70;;;;;;6309613;22;20000;-89
2021/11/16 01:55:39;;;;;;;45.08;26.92;;;7.30;91.70;;;;;;6284525;22;20056;-88
2021/11/16 01:58:29;;;;;;;42.15;25.92;;;7.30;91.80;;;;;;6309678;22;19996;-89
2021/11/16 02:01:22;;;;;;;43.50;25.42;;;7.30;91.80;;;;;;6309937;22;20000;-90
2021/11/16 02:04:07;;;;;;;48.78;25.70;;;7.40;91.90;;;;;;6283592;22;20012;-89
2021/11/16 02:06:52;;;;;;;43.58;26.60;;;7.40;91.90;;;;;;6286208;22;20003;-89
2021/11/16 02:09:23;;;;;;;44.10;26.63;;;7.40;91.90;;;;;;6236846;22;20068;-90
2021/11/16 02:12:01;;;;;;;45.25;26.35;;;7.40;91.90;;;;;;6259070;22;20073;-88
2021/11/16 02:14:50;;;;;;;44.33;25.13;;;7.40;91.90;;;;;;6283288;22;19996;-90
2021/11/16 02:17:52;;;;;;;;;;;;;;;;;;;;;
2021/11/16 02:20:40;;;;;;;;;;;;;;;;;;;;;
2021/11/16 02:23:39;;;;;;;42.70;24.70;;;7.50;92.20;;;;;;6286813;22;20106;-90
2021/11/16 02:26:06;;;;;;;43.25;25.17;;;7.50;92.20;;;;;;6308237;22;20003;-88
2021/11/16 02:29:02;;;;;;;44.20;24.77;;;7.50;92.30;;;;;;6259252;22;20069;-89
2021/11/16 02:31:47;;;;;;;;;;;;;;;;;;;;;
2021/11/16 02:34:18;;;;;;;44.70;26.38;;;7.50;92.20;;;;;;6310470;22;20074;-89
2021/11/16 02:36:47;;;;;;;44.15;26.13;;;7.50;92.20;;;;;;6258548;22;20037;-89
2021/11/16 02:39:16;;;;;;;44.38;26.60;;;7.60;92.20;;;;;;6309693;22;20035;-89
2021/11/16 02:41:55;;;;;;;43.83;24.58;;;7.60;92.10;;;;;;6258757;22;20029;-89
2021/11/16 02:44:34;;;;;;;44.92;26.25;;;7.50;92.00;;;;;;6283880;22;20003;-89
2021/11/16 02:47:02;;;;;;;44.78;25.80;;;7.50;92.10;;;;;;6283394;22;20003;-88
2021/11/16 02:49:34;;;;;;;41.67;25.02;;;7.60;92.00;;;;;;6283305;22;20447;-90
2021/11/16 02:52:09;;;;;;;41.72;25.48;;;7.60;92.00;;;;;;6258868;22;19999;-89
2021/11/16 02:54:47;;;;;;;;;;;;;;;;;;;;;
2021/11/16 02:57:16;;;;;;;44.70;27.55;;;7.60;91.90;;;;;;6307735;22;19995;-89
2021/11/16 02:59:56;;;;;;;42.28;26.02;;;7.50;91.70;;;;;;6301305;22;20002;-90
2021/11/16 03:02:32;;;;;;;45.15;26.35;;;7.40;91.70;;;;;;6278398;22;20100;-90
2021/11/16 03:05:33;;;;;;;42.45;25.05;;;7.50;91.80;;;;;;6280746;22;20004;-88
2021/11/16 03:08:24;;;;;;;47.85;26.85;;;7.50;91.80;;;;;;6308058;22;19999;-90
2021/11/16 03:14:05;;;;;;;45.53;26.30;;;7.50;91.80;;;;;;6310967;22;20007;-89
2021/11/16 03:17:01;;;;;;;;;;;;;;;;;;;;;
2021/11/16 03:19:55;;;;;;;;;;;;;;;;;;;;;
2021/11/16 03:22:47;;;;;;;41.35;24.83;;;7.30;91.80;;;;;;6310985;22;20078;-91
2021/11/16 03:25:37;;;;;;;44.83;25.38;;;7.40;91.90;;;;;;6283285;22;20417;-89
2021/11/16 03:28:28;;;;;;;46.58;25.85;;;7.40;92.00;;;;;;6308903;22;20417;-91
2021/11/16 03:31:07;;;;;;;;;;;;;;;;;;;;;
2021/11/16 03:33:54;;;;;;;44.80;25.38;;;7.40;92.10;;;;;;6280415;22;20083;-90
2021/11/16 03:36:24;;;;;;;45.30;24.48;;;7.40;92.10;;;;;;6254650;22;20066;-88
2021/11/16 03:38:58;;;;;;;40.95;24.15;;;7.40;92.20;;;;;;6267722;22;20065;-90
2021/11/16 03:41:27;;;;;;;46.35;25.90;;;7.50;92.20;;;;;;6277484;22;20047;-91
2021/11/16 03:44:38;;;;;;;;;;;;;;;;;;;;;
2021/11/16 03:47:37;;;;;;;;;;;;;;;;;;;;;
2021/11/16 03:50:42;;;;;;;43.55;25.65;;;7.50;92.30;;;;;;6254860;22;20075;-90
2021/11/16 03:53:22;;;;;;;46.88;26.67;;;7.50;92.30;;;;;;6260476;22;20061;-89
2021/11/16 03:56:12;;;;;;;43.20;25.92;;;7.50;92.30;;;;;;6278314;22;20326;-89
2021/11/16 03:58:43;;;;;;;43.33;25.42;;;7.50;92.20;;;;;;6252769;22;20322;-89
2021/11/16 04:01:34;;;;;;;43.63;25.88;;;7.50;92.20;;;;;;6252830;22;20329;-90
2021/11/16 04:04:17;;;;;;;;;;;;;;;;;;;;;
2021/11/16 04:07:08;;;;;;;44.20;25.00;;;7.50;92.10;;;;;;6279363;22;20083;-89
2021/11/16 04:09:42;;;;;;;43.67;26.27;;;7.50;92.10;;;;;;6252140;22;20004;-89
2021/11/16 04:12:18;;;;;;;45.20;25.48;;;7.50;92.00;;;;;;6252453;22;20069;-88
2021/11/16 04:14:45;;;;;;;42.38;25.85;;;7.50;92.00;;;;;;6277613;22;20008;-88
2021/11/16 04:17:42;;;;;;;;;;;;;;;;;;;;;
2021/11/16 04:20:32;;;;;;;;;;;;;;;;;;;;;
2021/11/16 04:23:03;;;;;;;47.53;26.90;;;7.50;92.00;;;;;;6278756;22;20084;-90
2021/11/16 04:25:58;;;;;;;42.92;25.20;;;7.50;92.00;;;;;;6252315;22;20031;-89
2021/11/16 04:28:39;;;;;;;46.45;26.17;;;7.50;92.10;;;;;;6278836;22;20038;-90
2021/11/16 04:31:31;;;;;;;;;;;;;;;;;;;;;
2021/11/16 04:34:31;;;;;;;47.28;26.65;;;7.40;92.00;;;;;;6335769;22;20240;-89
2021/11/16 04:37:06;;;;;;;45.00;25.75;;;7.40;92.00;;;;;;6334099;22;20011;-89
2021/11/16 04:39:58;;;;;;;47.47;28.38;;;7.40;92.00;;;;;;6315307;22;20004;-89
2021/11/16 04:42:46;;;;;;;;;;;;;;;;;;;;;
2021/11/16 04:45:37;;;;;;;47.72;27.48;;;7.40;92.10;;;;;;6309808;22;20070;-90
2021/11/16 04:48:45;;;;;;;;;;;;;;;;;;;;;
2021/11/16 04:51:39;;;;;;;45.78;26.42;;;7.40;92.10;;;;;;6286773;22;20059;-89
2021/11/16 05:04:12;;;;;;;45.38;25.83;;;7.30;92.10;;;;;;6287440;22;20102;-89
2021/11/16 05:14:36;;;;;;;;;;;;;;;;;;;;;
2021/11/16 05:17:58;;;;;;;;;;;;;;;;;;;;;
2021/11/16 05:20:50;;;;;;;48.33;26.55;;;7.30;92.10;;;;;;6152928;23;20305;-89
2021/11/16 05:23:39;;;;;;;;;;;;;;;;;;;;;
2021/11/16 05:26:54;;;;;;;49.42;27.10;;;7.30;92.20;;;;;;6204097;22;20029;-88
2021/11/16 05:43:48;;;;;;;;;;;;;;;;;;;;;
2021/11/16 05:47:11;;;;;;;;;;;;;;;;;;;;;
2021/11/16 06:16:08;;;;;;;;;;;;;;;;;;;;;
2021/11/16 06:19:06;;;;;;;;;;;;;;;;;;;;;
2021/11/16 06:25:17;;;;;;;;;;;;;;;;;;;;;
2021/11/16 06:31:00;;;;;;;54.55;27.73;;;7.10;92.90;;;;;;6273502;22;20034;-87
2021/11/16 06:34:08;;;;;;;50.88;26.27;;;7.10;92.90;;;;;;6278828;22;20439;-90
2021/11/16 06:40:26;;;;;;;;;;;;;;;;;;;;;
2021/11/16 06:46:17;;;;;;;50.65;26.48;;;7.10;92.80;;;;;;6068850;23;20015;-88
2021/11/16 06:49:39;;;;;;;54.17;27.60;;;7.10;92.80;;;;;;6069058;23;20058;-89
2021/11/16 06:52:34;;;;;;;53.08;26.50;;;7.10;92.80;;;;;;6044775;23;20043;-88
2021/11/16 06:55:40;;;;;;;;;;;;;;;;;;;;;
2021/11/16 07:01:53;;;;;;;53.38;27.23;;;7.20;92.80;;;;;;6262940;22;20445;-89
2021/11/16 07:04:45;;;;;;;53.80;27.30;;;7.20;92.70;;;;;;6277297;22;20417;-89
2021/11/16 07:07:14;;;;;;;55.05;25.60;;;7.20;92.70;;;;;;6277883;22;20004;-89
2021/11/16 07:10:18;;;;;;;;;;;;;;;;;;;;;
2021/11/16 07:13:02;;;;;;;50.08;26.88;;;7.30;92.80;;;;;;6279455;22;20094;-90
2021/11/16 07:15:53;;;;;;;;;;;;;;;;;;;;;
2021/11/16 07:21:54;;;;;;;53.95;28.50;;;7.30;92.80;;;;;;6262746;22;20010;-88
2021/11/16 07:24:35;;;;;;;55.15;27.83;;;7.30;92.90;;;;;;6277681;22;20000;-88
2021/11/16 07:27:09;;;;;;;48.55;27.63;;;7.30;93.00;;;;;;6278521;22;20026;-90
2021/11/16 07:30:10;;;;;;;;;;;;;;;;;;;;;
2021/11/16 07:33:21;;;;;;;73.50;30.95;;;7.20;93.10;;;;;;6280266;22;20078;-89
2021/11/16 07:36:18;;;;;;;85.07;32.00;;;7.20;93.20;;;;;;6266871;22;20007;-88
2021/11/16 07:39:26;;;;;;;64.55;29.13;;;7.20;93.30;;;;;;6246675;22;19988;-89
2021/11/16 07:42:58;;;;;;;52.97;27.20;;;7.20;93.40;;;;;;6204409;22;19984;-89
2021/11/16 07:46:11;;;;;;;55.75;27.73;;;7.20;93.40;;;;;;6157467;23;20010;-88
2021/11/16 07:48:47;;;;;;;53.20;26.65;;;7.20;93.50;;;;;;6274788;22;20363;-90
2021/11/16 07:58:19;;;;;;;51.92;24.98;;;7.20;93.60;;;;;;6248832;22;20026;-89
2021/11/16 08:29:01;;;;;;;55.30;27.45;;;7.20;93.90;;;;;;6157677;23;20002;-89
2021/11/16 08:40:36;;;;;;;;;;;;;;;;;;;;;
2021/11/16 08:44:14;;;;;;;;;;;;;;;;;;;;;
2021/11/16 08:47:41;;;;;;;;;;;;;;;;;;;;;
2021/11/16 09:00:39;;;;;;;;;;;;;;;;;;;;;
2021/11/16 09:18:30;;;;;;;;;;;;;;;;;;;;;
2021/11/16 09:28:57;;;;;;;;;;;;;;;;;;;;;
2021/11/16 09:43:11;;;;;;;;;;;;;;;;;;;;;
2021/11/16 10:04:56;;;;;;;;;;;;;;;;;;;;;
2021/11/16 10:34:02;;;;;;;;;;;;;;;;;;;;;
2021/11/16 10:37:31;;;;;;;35.03;18.83;;;7.70;93.40;;;;;;5821225;24;20477;-87
2021/11/16 10:40:34;;;;;;;33.67;17.25;;;7.70;93.30;;;;;;5874361;24;20079;-89
2021/11/16 10:46:57;;;;;;;;;;;;;;;;;;;;;
2021/11/16 10:53:11;;;;;;;31.73;17.17;;;7.70;93.30;;;;;;6214871;23;20020;-88
2021/11/16 10:56:25;;;;;;;;;;;;;;;;;;;;;
2021/11/16 10:59:31;;;;;;;31.70;16.70;;;7.70;93.20;;;;;;6169926;23;20058;-89
2021/11/16 11:02:22;;;;;;;31.45;17.35;;;7.70;93.50;;;;;;6207372;23;20122;-88
2021/11/16 11:12:00;;;;;;;33.10;17.88;;;7.80;93.20;;;;;;5983731;23;20043;-90
2021/11/16 11:15:14;;;;;;;33.28;18.02;;;7.80;93.10;;;;;;6007173;23;20007;-88
2021/11/16 11:18:11;;;;;;;32.15;16.52;;;7.80;93.10;;;;;;5998414;23;20089;-88
2021/11/16 11:24:17;;;;;;;34.55;17.40;;;7.80;93.00;;;;;;6229512;23;20008;-88
2021/11/16 11:26:54;;;;;;;30.08;16.17;;;7.80;93.20;;;;;;6248056;23;20027;-87
2021/11/16 11:30:01;;;;;;;29.73;16.60;;;7.80;93.20;;;;;;6218716;23;20007;-89
2021/11/16 11:32:58;;;;;;;31.80;16.55;;;7.80;93.10;;;;;;6212358;23;20414;-88
2021/11/16 11:35:49;;;;;;;;;;;;;;;;;;;;;
2021/11/16 11:38:41;;;;;;;28.60;15.13;;;7.80;93.10;;;;;;6258324;23;20067;-85
2021/11/16 11:41:21;;;;;;;29.65;16.52;;;7.80;93.20;;;;;;6230670;23;20004;-87
2021/11/16 11:44:37;;;;;;;;;;;;;;;;;;;;;
2021/11/16 11:47:22;;;;;;;32.25;17.58;;;7.90;93.60;;;;;;6239739;23;20079;-90
2021/11/16 11:50:02;;;;;;;34.35;18.45;;;7.80;93.10;;;;;;6222083;23;20414;-88
2021/11/16 11:52:39;;;;;;;30.05;17.35;;;7.90;93.10;;;;;;6247154;23;20426;-88
2021/11/16 11:55:28;;;;;;;31.45;18.05;;;7.80;93.10;;;;;;6222384;23;20093;-88
2021/11/16 11:58:17;;;;;;;;;;;;;;;;;;;;;
2021/11/16 12:01:06;;;;;;;;;;;;;;;;;;;;;
2021/11/16 12:04:00;;;;;;;32.42;17.25;;;7.90;93.00;;;;;;6248917;23;20374;-89
2021/11/16 12:06:52;;;;;;;29.73;16.77;;;7.80;92.80;;;;;;6221725;23;20008;-87
2021/11/16 12:09:55;;;;;;;;;;;;;;;;;;;;;
2021/11/16 12:12:43;;;;;;;31.25;17.33;;;7.80;92.70;;;;;;6247547;23;20083;-89
2021/11/16 12:16:02;;;;;;;;;;;;;;;;;;;;;
2021/11/16 12:19:00;;;;;;;31.77;15.95;;;7.70;92.70;;;;;;6256780;22;20103;-89
2021/11/16 12:22:23;;;;;;;;;;;;;;;;;;;;;
2021/11/16 12:28:52;;;;;;;;;;;;;;;;;;;;;
2021/11/16 12:32:11;;;;;;;34.13;18.48;;;7.70;92.80;;;;;;6258068;23;20027;-89
2021/11/16 12:35:05;;;;;;;31.80;17.33;;;7.70;92.80;;;;;;6224597;23;20011;-89
2021/11/16 12:47:45;;;;;;;;;;;;;;;;;;;;;
2021/11/16 12:54:53;;;;;;;;;;;;;;;;;;;;;
2021/11/16 12:57:07;;;;;;;35.15;17.73;;;7.70;93.00;;;;;;6142577;23;20081;-88
2021/11/16 12:59:39;;;;;;;31.95;16.80;;;7.70;93.00;;;;;;6132921;23;20017;-88
2021/11/16 13:05:59;;;;;;;36.25;17.98;;;7.70;93.20;;;;;;6157087;23;20035;-88
2021/11/16 13:09:00;;;;;;;34.20;17.88;;;7.70;93.30;;;;;;6132879;23;20124;-91
2021/11/16 13:12:10;;;;;;;33.83;17.73;;;7.70;93.30;;;;;;6156581;23;20002;-88
2021/11/16 13:21:31;;;;;;;;;;;;;;;;;;;;;
2021/11/16 13:24:17;;;;;;;;;;;;;;;;;;;;;
2021/11/16 13:27:00;;;;;;;;;;;;;;;;;;;;;
2021/11/16 13:33:43;;;;;;;34.35;17.73;;;7.70;93.40;;;;;;6172204;22;20006;-89
2021/11/16 13:37:03;;;;;;;29.70;16.80;;;7.70;93.40;;;;;;6305169;22;20006;-89
2021/11/16 13:39:41;;;;;;;33.97;18.20;;;7.70;93.40;;;;;;6305545;22;20048;-88
2021/11/16 13:42:16;;;;;;;32.55;17.95;;;7.70;93.40;;;;;;6305277;22;20008;-89
2021/11/16 13:49:08;;;;;;;40.70;21.77;;;7.70;93.40;;;;;;6224978;22;20037;-89
2021/11/16 13:55:26;;;;;;;;;;;;;;;;;;;;;
2021/11/16 13:58:32;;;;;;;;;;;;;;;;;;;;;
2021/11/16 14:01:38;;;;;;;33.47;18.80;;;7.60;93.50;;;;;;6298419;22;20008;-87
2021/11/16 14:05:11;;;;;;;;;;;;;;;;;;;;;
2021/11/16 14:15:14;;;;;;;;;;;;;;;;;;;;;
2021/11/16 14:22:05;;;;;;;;;;;;;;;;;;;;;
2021/11/16 14:25:28;;;;;;;;;;;;;;;;;;;;;
2021/11/16 14:31:49;;;;;;;34.20;19.17;;;7.60;93.80;;;;;;6129393;23;20005;-89
2021/11/16 14:35:03;;;;;;;33.47;18.88;;;7.50;93.80;;;;;;6118783;23;20006;-88
2021/11/16 14:37:49;;;;;;;34.55;19.13;;;7.50;93.80;;;;;;6131880;23;20001;-89
2021/11/16 14:44:07;;;;;;;42.75;21.27;;;7.50;93.80;;;;;;6185762;23;20316;-89
2021/11/16 14:47:40;;;;;;;;;;;;;;;;;;;;;
2021/11/16 14:50:54;;;;;;;37.88;20.23;;;7.60;93.90;;;;;;6246566;23;20058;-90
2021/11/16 14:53:49;;;;;;;;;;;;;;;;;;;;;
2021/11/16 14:57:11;;;;;;;35.60;19.67;;;7.50;93.80;;;;;;6231130;23;20091;-89
2021/11/16 15:00:25;;;;;;;;;;;;;;;;;;;;;
2021/11/16 15:07:02;;;;;;;;;;;;;;;;;;;;;
2021/11/16 15:10:27;;;;;;;;;;;;;;;;;;;;;
2021/11/16 15:14:31;;;;;;;;;;;;;;;;;;;;;
2021/11/16 15:20:46;;;;;;;36.08;18.73;;;7.50;93.60;;;;;;6196546;22;20453;-89
2021/11/16 15:26:42;;;;;;;;;;;;;;;;;;;;;
2021/11/16 15:30:16;;;;;;;36.55;19.38;;;7.40;93.50;;;;;;6277445;22;20314;-91
2021/11/16 15:36:40;;;;;;;35.83;19.02;;;7.40;93.50;;;;;;6302962;22;20011;-87
2021/11/16 15:39:17;;;;;;;33.75;18.33;;;7.40;93.50;;;;;;6182386;22;20009;-90
2021/11/16 15:42:15;;;;;;;27.70;16.55;;;7.40;93.50;;;;;;6303874;22;20011;-90
2021/11/16 15:45:12;;;;;;;33.92;17.50;;;7.40;93.50;;;;;;6251815;22;20007;-89
2021/11/16 15:48:06;;;;;;;;;;;;;;;;;;;;;
2021/11/16 15:51:10;;;;;;;29.70;16.13;;;7.40;93.50;;;;;;6279627;22;19962;-90
2021/11/16 16:00:22;;;;;;;;;;;;;;;;;;;;;
2021/11/16 16:06:41;;;;;;;38.38;19.73;;;7.30;93.60;;;;;;6238426;22;20333;-89
2021/11/16 16:10:05;;;;;;;36.08;19.50;;;7.40;93.60;;;;;;6304079;22;20322;-88
2021/11/16 16:13:14;;;;;;;;;;;;;;;;;;;;;
2021/11/16 16:20:59;;;;;;;;;;;;;;;;;;;;;
2021/11/16 16:33:12;;;;;;;41.22;20.98;;;7.30;93.80;;;;;;6263108;22;20003;-88
2021/11/16 16:35:52;;;;;;;38.70;20.42;;;7.30;93.80;;;;;;6277832;22;20003;-88
2021/11/16 16:42:39;;;;;;;;;;;;;;;;;;;;;
2021/11/16 16:45:48;;;;;;;38.33;20.70;;;7.30;94.00;;;;;;6164971;23;20036;-88
2021/11/16 16:48:51;;;;;;;41.15;21.50;;;7.30;94.00;;;;;;6109927;23;20029;-88
2021/11/16 16:52:01;;;;;;;38.63;20.30;;;7.20;94.00;;;;;;6128300;23;20014;-86
2021/11/16 16:54:32;;;;;;;37.58;20.90;;;7.20;94.10;;;;;;6146236;23;20067;-87
2021/11/16 16:57:09;;;;;;;39.70;21.30;;;7.20;94.10;;;;;;6217596;22;20008;-87
2021/11/16 16:59:43;;;;;;;41.33;20.90;;;7.30;94.10;;;;;;6251876;22;20011;-85
2021/11/16 17:02:15;;;;;;;40.55;20.98;;;7.30;94.10;;;;;;6252531;22;20000;-88
2021/11/16 17:04:52;;;;;;;41.38;21.52;;;7.30;94.20;;;;;;6296010;22;20003;-86
2021/11/16 17:07:35;;;;;;;39.30;21.02;;;7.30;94.20;;;;;;6256601;22;20012;-87
2021/11/16 17:10:36;;;;;;;39.20;20.90;;;7.30;94.20;;;;;;6306354;22;20003;-88
2021/11/16 17:13:12;;;;;;;38.72;20.52;;;7.30;94.20;;;;;;6283384;22;20010;-88
2021/11/16 17:15:45;;;;;;;42.30;21.63;;;7.20;94.20;;;;;;6255931;22;20026;-87
2021/11/16 17:18:32;;;;;;;37.72;21.35;;;7.30;94.20;;;;;;6254147;22;20007;-88
2021/11/16 17:21:22;;;;;;;;;;;;;;;;;;;;;
2021/11/16 17:24:06;;;;;;;40.13;20.75;;;7.30;94.20;;;;;;6280617;22;20087;-86
2021/11/16 17:26:59;;;;;;;39.08;20.05;;;7.30;94.20;;;;;;6298090;22;20000;-87
2021/11/16 17:29:39;;;;;;;39.03;20.55;;;7.20;94.20;;;;;;6261721;22;20003;-87
2021/11/16 17:32:25;;;;;;;35.33;19.00;;;7.30;94.20;;;;;;6305326;22;20090;-87
2021/11/16 17:35:25;;;;;;;;;;;;;;;;;;;;;
2021/11/16 17:38:19;;;;;;;38.97;19.65;;;7.30;94.20;;;;;;6274652;22;20062;-87
2021/11/16 17:41:29;;;;;;;;;;;;;;;;;;;;;
2021/11/16 17:44:32;;;;;;;;;;;;;;;;;;;;;
2021/11/16 17:47:18;;;;;;;;;;;;;;;;;;;;;
2021/11/16 17:50:35;;;;;;;;;;;;;;;;;;;;;
2021/11/16 17:53:23;;;;;;;;;;;;;;;;;;;;;
2021/11/16 18:02:55;;;;;;;;;;;;;;;;;;;;;
2021/11/16 18:06:03;;;;;;;;;;;;;;;;;;;;;
2021/11/16 18:08:51;;;;;;;;;;;;;;;;;;;;;
2021/11/16 18:11:23;;;;;;;35.33;18.42;;;7.20;94.10;;;;;;6277844;22;20496;-86
2021/11/16 18:17:14;;;;;;;33.15;17.38;;;7.20;94.10;;;;;;6265785;22;19911;-87
2021/11/16 18:19:47;;;;;;;33.03;17.20;;;7.20;94.10;;;;;;6257776;22;20031;-86
2021/11/16 18:22:16;;;;;;;32.72;17.25;;;7.20;94.40;;;;;;6279201;22;20023;-86
2021/11/16 18:25:07;;;;;;;34.60;17.35;;;7.20;94.10;;;;;;6304809;22;20031;-87
2021/11/16 18:27:41;;;;;;;34.67;17.77;;;7.20;94.10;;;;;;6280010;22;20000;-86
2021/11/16 18:30:22;;;;;;;;;;;;;;;;;;;;;
2021/11/16 18:33:15;;;;;;;31.40;17.83;;;7.20;94.20;;;;;;6297398;22;20000;-86
2021/11/16 18:35:41;;;;;;;33.25;18.55;;;7.20;94.20;;;;;;6258417;22;20063;-87
2021/11/16 18:38:24;;;;;;;;;;;;;;;;;;;;;
2021/11/16 18:41:07;;;;;;;33.85;17.17;;;7.20;94.20;;;;;;6296892;22;19996;-88
2021/11/16 18:43:47;;;;;;;30.27;17.02;;;7.20;94.20;;;;;;6278902;22;19996;-87
2021/11/16 18:46:33;;;;;;;34.03;18.48;;;7.20;94.20;;;;;;6330677;22;19996;-86
2021/11/16 18:49:08;;;;;;;34.95;16.05;;;7.20;94.10;;;;;;6288407;22;20015;-86
2021/11/16 18:51:52;;;;;;;;;;;;;;;;;;;;;
2021/11/16 18:54:23;;;;;;;32.72;17.08;;;7.20;94.20;;;;;;6281083;22;20074;-87
2021/11/16 18:57:38;;;;;;;32.90;18.15;;;7.30;94.20;;;;;;6308657;22;20000;-88
2021/11/16 19:00:45;;;;;;;;;;;;;;;;;;;;;
2021/11/16 19:10:48;;;;;;;;;;;;;;;;;;;;;
2021/11/16 19:13:40;;;;;;;;;;;;;;;;;;;;;
2021/11/16 19:16:46;;;;;;;;;;;;;;;;;;;;;
2021/11/16 19:26:48;;;;;;;;;;;;;;;;;;;;;
2021/11/16 19:32:46;;;;;;;30.67;16.55;;;7.20;94.30;;;;;;6176898;23;20016;-89
2021/11/16 19:35:50;;;;;;;32.13;16.27;;;7.20;94.30;;;;;;6211983;23;20398;-89
2021/11/16 19:41:55;;;;;;;32.38;16.13;;;7.20;94.40;;;;;;6202360;23;20004;-89
2021/11/16 19:44:37;;;;;;;;;;;7.20;94.30;;;;;;6234441;22;20012;-88
2021/11/16 19:51:20;;;;;;;;;;;;;;;;;;;;;
2021/11/16 19:54:36;;;;;;;;;;;;;;;;;;;;;
2021/11/16 19:57:48;;;;;;;;;;;;;;;;;;;;;
2021/11/16 20:00:59;;;;;;;;;;;;;;;;;;;;;
2021/11/16 20:04:14;;;;;;;;;;;;;;;;;;;;;
2021/11/16 20:07:29;;;;;;;30.40;15.82;;;7.20;94.50;;;;;;6155581;22;19996;-89
2021/11/16 20:14:19;;;;;;;30.63;15.10;;;7.30;94.50;;;;;;6190558;23;19997;-89
2021/11/16 20:20:47;;;;;;;29.65;15.10;;;7.20;94.40;;;;;;6212115;23;19993;-90
2021/11/16 20:23:29;;;;;;;27.50;15.07;;;7.30;94.50;;;;;;6119029;23;20017;-92
2021/11/16 20:26:34;;;;;;;;;;;;;;;;;;;;;
2021/11/16 20:29:35;;;;;;;;;;;;;;;;;;;;;
2021/11/16 20:32:16;;;;;;;;;;;;;;;;;;;;;
2021/11/16 20:35:35;;;;;;;33.95;17.60;;;7.30;94.40;;;;;;6139864;23;20041;-90
2021/11/16 20:41:54;;;;;;;34.40;17.15;;;7.30;94.50;;;;;;6235923;23;20440;-92
2021/11/16 21:01:37;;;;;;;;;;;;;;;;;;;;;
2021/11/16 21:08:10;;;;;;;;;;;;;;;;;;;;;
2021/11/16 21:18:34;;;;;;;;;;;;;;;;;;;;;
2021/11/16 21:21:35;;;;;;;;;;;;;;;;;;;;;
2021/11/16 21:31:01;;;;;;;36.22;19.17;;;7.20;94.50;;;;;;6138561;23;20078;-90
2021/11/16 21:33:35;;;;;;;39.15;19.42;;;7.20;94.50;;;;;;6094007;23;20014;-90
2021/11/16 21:36:32;;;;;;;42.85;20.73;;;7.30;94.50;;;;;;6222467;23;20020;-90
2021/11/16 21:39:56;;;;;;;;;;;;;;;;;;;;;
2021/11/16 21:43:06;;;;;;;40.83;21.23;;;7.30;94.60;;;;;;6258353;23;20041;-93
2021/11/16 21:45:43;;;;;;;40.92;20.48;;;7.20;94.50;;;;;;6238065;23;20012;-91
2021/11/16 21:54:19;;;;;;;39.55;20.92;;;7.20;94.60;;;;;;6294359;22;20017;-91
2021/11/16 21:56:57;;;;;;;45.30;23.67;;;7.30;94.60;;;;;;6274000;22;20007;-91
2021/11/16 21:59:55;;;;;;;46.20;23.02;;;7.20;94.60;;;;;;6308270;22;20007;-92
2021/11/16 22:02:38;;;;;;;44.72;21.67;;;7.20;94.60;;;;;;6289587;22;20037;-93
2021/11/16 22:05:47;;;;;;;;;;;;;;;;;;;;;
2021/11/16 22:09:02;;;;;;;;;;;;;;;;;;;;;
2021/11/16 22:11:54;;;;;;;46.58;22.13;;;7.30;94.60;;;;;;6304839;22;20030;-92
2021/11/16 22:15:04;;;;;;;40.10;21.33;;;7.30;94.60;;;;;;6249816;22;20003;-91
2021/11/16 22:18:03;;;;;;;44.88;22.73;;;7.20;94.60;;;;;;6311719;22;20004;-91
2021/11/16 22:21:00;;;;;;;48.20;22.73;;;7.20;94.60;;;;;;6261606;22;20007;-92
2021/11/16 22:23:42;;;;;;;46.90;23.80;;;7.30;94.60;;;;;;6285042;22;20007;-91
2021/11/16 22:27:09;;;;;;;;;;;;;;;;;;;;;
2021/11/16 22:30:17;;;;;;;;;;;;;;;;;;;;;
2021/11/16 22:32:55;;;;;;;51.08;24.05;;;7.30;94.60;;;;;;6281610;22;20065;-91
2021/11/16 22:39:10;;;;;;;48.60;24.60;;;7.30;94.60;;;;;;6189433;23;20012;-90
2021/11/16 22:49:27;;;;;;;;;;;;;;;;;;;;;
2021/11/16 22:52:40;;;;;;;54.60;26.95;;;7.40;94.60;;;;;;6199403;23;20092;-92
2021/11/16 22:59:19;;;;;;;56.67;27.52;;;7.40;94.60;;;;;;6240995;23;20020;-90
